Time;durP1;ratioP1;P1;durP2;ratioP2;P2;SDS_P1;SDS_P2;PMS_P1;PMS_P2;Temp;Humidity;BMP_temperature;BMP_pressure;BME280_temperature;BME280_humidity;BME280_pressure;Samples;Min_cycle;Max_cycle;Signal;HPM_P1;HPM_P2
2023/10/11 00:00:34;;;;;;;;;;;16.30;99.90;;;;;;5070799;28;19962;-73
2023/10/11 00:03:06;;;;;;;;;;;16.30;99.90;;;;;;5062913;28;19962;-76
2023/10/11 00:05:39;;;;;;;;;;;16.20;99.90;;;;;;5070365;28;19959;-74
2023/10/11 00:08:08;;;;;;;;;;;16.10;99.90;;;;;;5070940;28;20433;-73
2023/10/11 00:10:44;;;;;;;;;;;16.10;99.90;;;;;;5070585;28;19958;-73
2023/10/11 00:13:11;;;;;;;;;;;16.00;99.90;;;;;;5070228;28;19958;-72
2023/10/11 00:15:39;;;;;;;;;;;15.90;99.90;;;;;;5070633;28;19972;-74
2023/10/11 00:18:10;;;;;;;;;;;16.00;99.90;;;;;;5070757;28;19958;-74
2023/10/11 00:20:50;;;;;;;;;;;16.00;99.90;;;;;;5070576;28;19959;-75
2023/10/11 00:23:20;;;;;;;;;;;16.00;99.90;;;;;;5071281;28;19986;-74
2023/10/11 00:25:50;;;;;;;;;;;16.00;99.90;;;;;;5073534;28;19969;-75
2023/10/11 00:28:23;;;;;;;;;;;16.00;99.90;;;;;;5074522;28;19966;-75
2023/10/11 00:30:51;;;;;;;;;;;16.00;99.90;;;;;;5074159;28;19962;-74
2023/10/11 00:33:19;;;;;;;;;;;16.00;99.90;;;;;;5074115;28;20052;-75
2023/10/11 00:36:05;;;;;;;;;;;15.90;99.90;;;;;;5066581;28;20369;-75
2023/10/11 00:38:43;;;;;;;;;;;15.90;99.90;;;;;;5074206;28;19964;-75
2023/10/11 00:41:17;;;;;;;;;;;15.90;99.90;;;;;;5067260;28;19963;-75
2023/10/11 00:43:50;;;;;;;;;;;15.80;99.90;;;;;;5071386;28;19969;-75
2023/10/11 00:46:19;;;;;;;;;;;15.80;99.90;;;;;;5074262;28;19965;-75
2023/10/11 00:48:54;;;;;;;;;;;15.70;99.90;;;;;;5073729;28;20343;-74
2023/10/11 00:51:24;;;;;;;;;;;15.70;99.90;;;;;;5074142;28;20057;-75
2023/10/11 00:53:52;;;;;;;;;;;15.60;99.90;;;;;;5072376;28;20013;-75
2023/10/11 00:56:22;;;;;;;;;;;15.60;99.90;;;;;;5073928;28;19958;-75
2023/10/11 00:58:50;;;;;;;;;;;15.60;99.90;;;;;;5073216;28;19966;-73
2023/10/11 01:01:21;;;;;;;;;;;15.50;99.90;;;;;;5071577;28;19966;-73
2023/10/11 01:03:49;;;;;;;;;;;15.50;99.90;;;;;;5073578;28;20057;-75
2023/10/11 01:06:17;;;;;;;;;;;15.50;99.90;;;;;;5073869;28;20417;-74
2023/10/11 01:08:48;;;;;;;;;;;15.50;99.90;;;;;;5073047;28;19986;-75
2023/10/11 01:11:16;;;;;;;;;;;15.50;99.90;;;;;;5073746;28;19959;-74
2023/10/11 01:13:50;;;;;;;;;;;15.40;99.90;;;;;;5070154;28;20020;-73
2023/10/11 01:16:20;;;;;;;;;;;15.40;99.90;;;;;;5073805;28;19958;-73
2023/10/11 01:18:49;;;;;;;;;;;15.40;99.90;;;;;;5072948;28;20002;-74
2023/10/11 01:21:18;;;;;;;;;;;15.40;99.90;;;;;;5073385;28;20057;-74
2023/10/11 01:23:46;;;;;;;;;;;15.40;99.90;;;;;;5073053;28;20392;-74
2023/10/11 01:26:15;;;;;;;;;;;15.40;99.90;;;;;;5073571;28;20344;-74
2023/10/11 01:28:44;;;;;;;;;;;15.40;99.90;;;;;;5072789;28;19966;-74
2023/10/11 01:31:16;;;;;;;;;;;15.30;99.90;;;;;;5073343;28;20012;-76
2023/10/11 01:33:48;;;;;;;;;;;15.30;99.90;;;;;;5072110;28;19966;-74
2023/10/11 01:36:21;;;;;;;;;;;15.20;99.90;;;;;;5066532;28;19962;-74
2023/10/11 01:38:49;;;;;;;;;;;15.20;99.90;;;;;;5072809;28;19973;-73
2023/10/11 01:41:20;;;;;;;;;;;15.10;99.90;;;;;;5073058;28;19982;-73
2023/10/11 01:43:49;;;;;;;;;;;15.20;99.90;;;;;;5072692;28;19968;-74
2023/10/11 01:46:18;;;;;;;;;;;15.10;99.90;;;;;;5073102;28;19963;-73
2023/10/11 01:48:46;;;;;;;;;;;15.10;99.90;;;;;;5072507;28;19962;-74
2023/10/11 01:51:15;;;;;;;;;;;15.10;99.90;;;;;;5072881;28;19973;-74
2023/10/11 01:53:45;;;;;;;;;;;15.00;99.90;;;;;;5072691;28;20096;-75
2023/10/11 01:56:13;;;;;;;;;;;15.00;99.90;;;;;;5065195;28;20019;-75
2023/10/11 01:58:42;;;;;;;;;;;15.00;99.90;;;;;;5072427;28;19969;-73
2023/10/11 02:01:22;;;;;;;;;;;14.90;99.90;;;;;;5064274;28;20008;-73
2023/10/11 02:03:53;;;;;;;;;;;14.90;99.90;;;;;;5072435;28;19962;-75
2023/10/11 02:06:22;;;;;;;;;;;14.90;99.90;;;;;;5072808;28;19958;-73
2023/10/11 02:08:51;;;;;;;;;;;14.90;99.90;;;;;;5072076;28;20516;-72
2023/10/11 02:11:23;;;;;;;;;;;14.80;99.90;;;;;;5072343;28;20052;-74
2023/10/11 02:13:51;;;;;;;;;;;14.90;99.90;;;;;;5071844;28;19958;-75
2023/10/11 02:16:19;;;;;;;;;;;14.80;99.90;;;;;;5072464;28;20004;-74
2023/10/11 02:18:51;;;;;;;;;;;14.70;99.90;;;;;;5071835;28;19970;-76
2023/10/11 02:21:19;;;;;;;;;;;14.80;99.90;;;;;;5072304;28;19958;-74
2023/10/11 02:23:48;;;;;;;;;;;14.70;99.90;;;;;;5071905;28;19969;-74
2023/10/11 02:26:17;;;;;;;;;;;14.70;99.90;;;;;;5072388;28;19959;-74
2023/10/11 02:28:46;;;;;;;;;;;14.70;99.90;;;;;;5072004;28;20022;-74
2023/10/11 02:31:19;;;;;;;;;;;14.70;99.90;;;;;;5072138;28;19958;-75
2023/10/11 02:33:51;;;;;;;;;;;14.60;99.90;;;;;;5071549;28;19960;-75
2023/10/11 02:36:20;;;;;;;;;;;14.60;99.90;;;;;;5072020;28;19962;-74
2023/10/11 02:38:50;;;;;;;;;;;14.60;99.90;;;;;;5071516;28;19967;-74
2023/10/11 02:41:24;;;;;;;;;;;14.50;99.90;;;;;;5071837;28;20053;-73
2023/10/11 02:43:53;;;;;;;;;;;14.50;99.90;;;;;;5071530;28;19993;-73
2023/10/11 02:46:23;;;;;;;;;;;14.50;99.90;;;;;;5071267;28;19959;-73
2023/10/11 02:48:54;;;;;;;;;;;14.40;99.90;;;;;;5070543;28;19968;-73
2023/10/11 02:51:25;;;;;;;;;;;14.40;99.90;;;;;;5071758;28;20594;-71
2023/10/11 02:53:53;;;;;;;;;;;14.40;99.90;;;;;;5071609;28;19968;-72
2023/10/11 02:56:24;;;;;;;;;;;14.40;99.90;;;;;;5071774;28;19994;-73
2023/10/11 02:58:52;;;;;;;;;;;14.40;99.90;;;;;;5071102;28;20024;-72
2023/10/11 03:01:21;;;;;;;;;;;14.30;99.90;;;;;;5071293;28;19958;-73
2023/10/11 03:03:49;;;;;;;;;;;14.30;99.90;;;;;;5071590;28;19961;-74
2023/10/11 03:06:18;;;;;;;;;;;14.40;99.90;;;;;;5071566;28;19963;-73
2023/10/11 03:08:46;;;;;;;;;;;14.40;99.90;;;;;;5070545;28;20483;-72
2023/10/11 03:11:16;;;;;;;;;;;14.20;99.90;;;;;;5071156;28;19997;-73
2023/10/11 03:13:45;;;;;;;;;;;14.20;99.90;;;;;;5066827;28;20441;-74
2023/10/11 03:16:16;;;;;;;;;;;14.20;99.90;;;;;;5071315;28;19966;-73
2023/10/11 03:18:46;;;;;;;;;;;14.20;99.90;;;;;;5071142;28;19966;-73
2023/10/11 03:21:19;;;;;;;;;;;14.20;99.90;;;;;;5071101;28;19959;-72
2023/10/11 03:23:47;;;;;;;;;;;14.20;99.90;;;;;;5071321;28;19969;-73
2023/10/11 03:26:22;;;;;;;;;;;14.20;99.90;;;;;;5071038;28;19962;-73
2023/10/11 03:28:57;;;;;;;;;;;14.20;99.90;;;;;;5070533;28;19962;-72
2023/10/11 03:31:27;;;;;;;;;;;14.20;99.90;;;;;;5064210;28;19959;-73
2023/10/11 03:33:56;;;;;;;;;;;14.40;99.90;;;;;;5070940;28;20028;-73
2023/10/11 03:36:30;;;;;;;;;;;14.30;99.90;;;;;;5071174;28;19966;-73
2023/10/11 03:38:58;;;;;;;;;;;14.40;99.90;;;;;;5070580;28;19970;-73
2023/10/11 03:41:28;;;;;;;;;;;14.40;99.90;;;;;;5071002;28;20061;-73
2023/10/11 03:44:01;;;;;;;;;;;14.40;99.90;;;;;;5070632;28;19996;-73
2023/10/11 03:46:33;;;;;;;;;;;14.30;99.90;;;;;;5071321;28;19958;-74
2023/10/11 03:49:35;;;;;;;;;;;14.20;99.90;;;;;;5069906;28;20573;-73
2023/10/11 03:52:04;;;;;;;;;;;14.30;99.90;;;;;;5071150;28;19962;-72
2023/10/11 03:54:36;;;;;;;;;;;14.30;99.90;;;;;;5071217;28;20006;-73
2023/10/11 03:57:05;;;;;;;;;;;14.30;99.90;;;;;;5065434;28;20344;-72
2023/10/11 03:59:38;;;;;;;;;;;14.30;99.90;;;;;;5074206;28;19966;-73
2023/10/11 04:02:10;;;;;;;;;;;14.30;99.90;;;;;;5072980;28;19966;-74
2023/10/11 04:04:40;;;;;;;;;;;14.20;99.90;;;;;;5074540;28;19958;-72
2023/10/11 04:07:12;;;;;;;;;;;14.20;99.90;;;;;;5068422;28;19958;-72
2023/10/11 04:09:44;;;;;;;;;;;14.20;99.90;;;;;;5079992;28;19962;-72
2023/10/11 04:12:12;;;;;;;;;;;14.20;99.90;;;;;;5079824;28;20016;-73
2023/10/11 04:14:44;;;;;;;;;;;14.20;99.90;;;;;;5071744;28;19967;-72
2023/10/11 04:17:26;;;;;;;;;;;14.10;99.90;;;;;;5074340;28;19966;-73
2023/10/11 04:19:54;;;;;;;;;;;14.10;99.90;;;;;;5070320;28;19961;-73
2023/10/11 04:22:25;;;;;;;;;;;14.10;99.90;;;;;;5074225;28;20447;-72
2023/10/11 04:24:54;;;;;;;;;;;14.10;99.90;;;;;;5074257;28;19978;-73
2023/10/11 04:30:23;;;;;;;;;;;14.00;99.90;;;;;;5073890;28;20016;-74
2023/10/11 04:32:56;;;;;;;;;;;14.00;99.90;;;;;;5073736;28;20024;-73
2023/10/11 04:35:25;;;;;;;;;;;13.90;99.90;;;;;;5066015;28;19962;-72
2023/10/11 04:37:55;;;;;;;;;;;13.90;99.90;;;;;;5073678;28;19963;-71
2023/10/11 04:40:35;;;;;;;;;;;13.90;99.90;;;;;;5073706;28;19958;-70
2023/10/11 04:43:08;;;;;;;;;;;13.90;99.90;;;;;;5073979;28;20016;-72
2023/10/11 04:45:44;;;;;;;;;;;13.90;99.90;;;;;;5074008;28;20435;-74
2023/10/11 04:48:18;;;;;;;;;;;13.90;99.90;;;;;;5072225;28;19988;-72
2023/10/11 04:50:47;;;;;;;;;;;13.80;99.90;;;;;;5073860;28;19979;-75
2023/10/11 04:53:19;;;;;;;;;;;13.80;99.90;;;;;;5073858;28;19966;-72
2023/10/11 04:55:48;;;;;;;;;;;13.80;99.90;;;;;;5073909;28;19966;-73
2023/10/11 04:58:40;;;;;;;;;;;13.70;99.90;;;;;;5073631;28;20032;-70
2023/10/11 05:01:11;;;;;;;;;;;13.70;99.90;;;;;;5073570;28;19963;-73
2023/10/11 05:03:40;;;;;;;;;;;13.70;99.90;;;;;;5082737;22;20085;-68
2023/10/11 05:06:15;;;;;;;;;;;13.70;99.90;;;;;;5053140;28;20490;-68
2023/10/11 05:08:52;;;;;;;;;;;13.70;99.90;;;;;;5052575;28;19975;-67
2023/10/11 05:11:36;;;;;;;;;;;13.70;99.90;;;;;;5051450;28;20028;-68
2023/10/11 05:14:10;;;;;;;;;;;13.70;99.90;;;;;;5052985;28;20557;-68
2023/10/11 05:16:44;;;;;;;;;;;13.70;99.90;;;;;;5053331;28;19986;-67
2023/10/11 05:19:15;;;;;;;;;;;13.80;99.90;;;;;;5052919;28;19963;-67
2023/10/11 05:21:43;;;;;;;;;;;13.80;99.90;;;;;;5053468;28;20004;-67
2023/10/11 05:24:29;;;;;;;;;;;13.80;99.90;;;;;;5053084;28;20509;-66
2023/10/11 05:27:35;;;;;;;4.80;4.15;;;13.80;99.90;;;;;;5052713;28;20213;-64
2023/10/11 05:30:06;;;;;;;7.25;4.30;;;13.80;99.90;;;;;;5052502;28;20738;-64
2023/10/11 05:32:41;;;;;;;8.15;4.15;;;13.60;99.90;;;;;;5052200;28;20228;-64
2023/10/11 05:35:19;;;;;;;5.15;3.85;;;13.50;99.90;;;;;;5052456;28;20313;-64
2023/10/11 05:51:39;;;;;;;5.53;3.95;;;13.40;99.90;;;;;;5052500;28;20207;-64
2023/10/11 05:54:09;;;;;;;5.43;3.92;;;13.50;99.90;;;;;;5051966;28;20303;-65
2023/10/11 05:56:39;;;;;;;3.92;3.00;;;13.50;99.90;;;;;;5051366;28;20207;-64
2023/10/11 05:59:10;;;;;;;6.00;3.83;;;13.50;99.90;;;;;;5049865;28;20253;-64
2023/10/11 06:01:38;;;;;;;5.03;3.92;;;13.40;99.90;;;;;;5049076;28;20208;-64
2023/10/11 06:04:08;;;;;;;5.85;3.50;;;13.40;99.90;;;;;;5057117;28;20255;-64
2023/10/11 06:06:39;;;;;;;7.53;4.28;;;13.40;99.90;;;;;;5052662;28;20306;-63
2023/10/11 06:09:16;;;;;;;6.35;3.47;;;13.50;99.90;;;;;;5048002;28;20258;-63
2023/10/11 06:11:48;;;;;;;6.45;4.25;;;13.50;99.90;;;;;;5051337;28;20212;-64
2023/10/11 06:14:16;;;;;;;5.40;3.65;;;13.40;99.90;;;;;;5050768;28;20705;-63
2023/10/11 06:16:49;;;;;;;8.07;4.50;;;13.40;99.90;;;;;;5051035;28;20637;-64
2023/10/11 06:19:19;;;;;;;7.20;4.30;;;13.40;99.90;;;;;;5050664;28;20208;-66
2023/10/11 06:21:58;;;;;;;6.03;5.43;;;13.50;99.90;;;;;;5050257;28;20216;-65
2023/10/11 06:24:30;;;;;;;4.82;3.60;;;13.60;99.90;;;;;;5050615;28;20227;-64
2023/10/11 06:27:14;;;;;;;5.60;3.97;;;13.60;99.90;;;;;;5050671;28;20223;-64
2023/10/11 06:29:45;;;;;;;7.85;4.18;;;13.70;99.90;;;;;;5048815;28;20218;-63
2023/10/11 06:32:13;;;;;;;4.85;4.05;;;13.80;99.90;;;;;;5050748;28;20204;-64
2023/10/11 06:34:50;;;;;;;4.25;3.28;;;13.80;99.90;;;;;;5050811;28;20215;-63
2023/10/11 06:37:19;;;;;;;5.85;4.25;;;13.80;99.90;;;;;;5050527;28;20196;-64
2023/10/11 06:42:53;;;;;;;8.18;3.70;;;13.80;99.90;;;;;;5134820;27;20803;-65
2023/10/11 06:45:21;;;;;;;6.15;3.25;;;13.80;99.90;;;;;;5099111;27;20606;-65
2023/10/11 06:47:50;;;;;;;6.68;4.45;;;13.80;99.90;;;;;;5089950;28;20195;-65
2023/10/11 06:50:24;;;;;;;5.50;3.45;;;13.90;99.90;;;;;;5090948;28;20210;-65
2023/10/11 06:52:53;;;;;;;8.30;4.13;;;14.00;99.90;;;;;;5097807;28;20759;-65
2023/10/11 06:55:25;;;;;;;6.30;3.47;;;14.10;99.90;;;;;;5101589;27;20213;-65
2023/10/11 06:57:56;;;;;;;5.70;4.10;;;14.20;99.90;;;;;;5099025;28;20645;-65
2023/10/11 07:00:28;;;;;;;4.90;3.67;;;14.40;99.90;;;;;;5105457;28;20198;-66
2023/10/11 07:03:06;;;;;;;7.97;5.18;;;14.40;99.90;;;;;;5098680;28;20226;-66
2023/10/11 07:05:40;;;;;;;8.35;4.93;;;14.30;99.90;;;;;;5088752;28;20305;-66
2023/10/11 07:08:09;;;;;;;7.25;4.65;;;14.40;99.90;;;;;;5105400;28;20704;-66
2023/10/11 07:10:45;;;;;;;6.47;4.18;;;14.40;99.90;;;;;;5098496;28;20202;-66
2023/10/11 07:13:15;;;;;;;6.80;4.30;;;14.40;99.90;;;;;;5105760;27;20224;-65
2023/10/11 07:15:44;;;;;;;7.32;4.50;;;14.40;99.90;;;;;;5101392;28;20203;-65
2023/10/11 07:18:21;;;;;;;7.03;4.75;;;14.50;99.90;;;;;;5094496;28;20234;-64
2023/10/11 07:20:57;;;;;;;5.28;4.50;;;14.80;99.90;;;;;;5096497;28;20241;-65
2023/10/11 07:23:35;;;;;;;6.43;4.70;;;14.80;99.90;;;;;;5089583;28;20793;-65
2023/10/11 07:26:24;;;;;;;6.80;3.63;;;15.00;99.90;;;;;;5104707;28;20207;-65
2023/10/11 07:28:53;;;;;;;8.80;4.03;;;15.10;99.90;;;;;;5093899;27;20312;-63
2023/10/11 07:31:27;;;;;;;5.47;4.13;;;15.30;99.90;;;;;;5110758;28;20193;-66
2023/10/11 07:33:55;;;;;;;7.35;4.78;;;15.40;99.90;;;;;;5095525;28;20225;-66
2023/10/11 07:36:25;;;;;;;6.40;3.92;;;15.40;99.90;;;;;;5095049;28;20203;-66
2023/10/11 07:38:56;;;;;;;5.25;3.47;;;15.60;99.90;;;;;;5107123;28;20205;-66
2023/10/11 07:41:28;;;;;;;5.93;4.10;;;15.70;99.90;;;;;;5100083;27;20290;-66
2023/10/11 07:43:58;;;;;;;5.57;4.22;;;15.90;99.90;;;;;;5099066;28;20225;-66
2023/10/11 07:46:28;;;;;;;6.10;4.07;;;16.00;99.90;;;;;;5092168;28;20738;-66
2023/10/11 07:49:01;;;;;;;5.00;3.35;;;16.10;99.90;;;;;;5101203;28;20264;-66
2023/10/11 07:51:30;;;;;;;6.32;4.05;;;16.20;99.90;;;;;;5096862;28;20821;-66
2023/10/11 07:53:58;;;;;;;7.82;3.50;;;16.30;99.90;;;;;;5081863;28;20241;-67
2023/10/11 07:56:28;;;;;;;7.13;4.10;;;16.50;99.90;;;;;;5087284;28;20206;-66
2023/10/11 07:58:58;;;;;;;12.82;4.35;;;16.70;99.90;;;;;;5079067;28;20298;-67
2023/10/11 08:01:30;;;;;;;6.10;3.83;;;16.80;99.90;;;;;;5083693;28;20215;-66
2023/10/11 08:03:58;;;;;;;6.93;3.65;;;17.00;99.90;;;;;;5075113;28;20223;-66
2023/10/11 08:06:27;;;;;;;6.63;3.85;;;17.10;99.90;;;;;;5079660;28;20282;-66
2023/10/11 08:08:59;;;;;;;5.60;4.32;;;17.10;99.90;;;;;;5090939;28;20203;-66
2023/10/11 08:11:36;;;;;;;2.78;2.40;;;17.30;99.90;;;;;;5082782;28;20202;-66
2023/10/11 08:14:14;;;;;;;5.55;3.17;;;17.30;99.90;;;;;;5088802;28;20303;-66
2023/10/11 08:16:47;;;;;;;4.57;3.47;;;17.50;99.90;;;;;;5083220;28;20218;-66
2023/10/11 08:19:15;;;;;;;5.18;3.95;;;17.70;99.90;;;;;;5083272;28;20226;-66
2023/10/11 08:21:50;;;;;;;4.13;3.75;;;17.90;99.90;;;;;;5082866;28;20690;-65
2023/10/11 08:24:24;;;;;;;6.07;4.43;;;18.20;99.90;;;;;;5080144;28;20342;-66
2023/10/11 08:26:53;;;;;;;7.22;3.90;;;18.50;99.90;;;;;;5078743;28;20261;-66
2023/10/11 08:29:31;;;;;;;5.20;4.15;;;18.60;99.90;;;;;;5083109;28;20658;-67
2023/10/11 08:32:00;;;;;;;4.93;3.60;;;18.80;99.90;;;;;;5081364;28;20696;-66
2023/10/11 08:34:29;;;;;;;5.10;3.80;;;18.90;99.90;;;;;;5078362;28;20288;-66
2023/10/11 08:36:57;;;;;;;5.07;3.35;;;19.00;99.90;;;;;;5081679;28;20207;-66
2023/10/11 08:39:35;;;;;;;6.10;4.80;;;19.20;99.90;;;;;;5083662;28;20206;-66
2023/10/11 08:42:09;;;;;;;4.35;3.35;;;19.20;99.90;;;;;;5089763;28;20230;-66
2023/10/11 08:44:40;;;;;;;4.70;3.22;;;19.30;99.90;;;;;;5079648;28;20211;-66
2023/10/11 08:47:07;;;;;;;9.23;3.90;;;19.60;99.90;;;;;;5083482;28;20207;-66
2023/10/11 08:49:41;;;;;;;5.60;2.95;;;20.00;99.90;;;;;;5075854;28;20267;-66
2023/10/11 08:52:11;;;;;;;6.68;3.53;;;20.20;99.90;;;;;;5079711;28;20210;-66
2023/10/11 08:54:40;;;;;;;4.78;3.70;;;20.40;99.90;;;;;;5076050;28;20207;-68
2023/10/11 08:57:13;;;;;;;4.65;3.53;;;20.40;99.90;;;;;;5075805;28;20203;-67
2023/10/11 08:59:56;;;;;;;6.82;3.70;;;20.60;99.90;;;;;;5076913;28;20242;-70
2023/10/11 09:02:26;;;;;;;4.80;2.85;;;20.80;99.90;;;;;;5077413;28;20279;-66
2023/10/11 09:04:56;;;;;;;5.18;3.42;;;21.10;99.90;;;;;;5076862;28;20226;-66
2023/10/11 09:07:38;;;;;;;5.10;3.35;;;21.30;99.90;;;;;;5078712;28;20620;-69
2023/10/11 09:10:25;;;;;;;6.30;3.35;;;21.50;99.90;;;;;;5077055;28;20217;-65
2023/10/11 09:13:08;;;;;;;3.15;2.85;;;21.60;99.90;;;;;;5078235;28;20742;-65
2023/10/11 09:15:40;;;;;;;3.65;2.60;;;21.50;99.90;;;;;;5078465;28;20222;-66
2023/10/11 09:18:15;;;;;;;4.70;2.60;;;21.70;99.90;;;;;;5075822;28;20306;-65
2023/10/11 09:20:55;;;;;;;6.30;3.00;;;21.90;99.90;;;;;;5077768;28;20392;-66
2023/10/11 09:23:35;;;;;;;6.15;3.20;;;22.00;99.90;;;;;;5075727;28;20226;-65
2023/10/11 09:26:05;;;;;;;3.30;2.60;;;21.60;99.90;;;;;;5077098;28;20216;-65
2023/10/11 09:28:34;;;;;;;4.10;3.30;;;21.70;99.90;;;;;;5076552;28;20221;-65
2023/10/11 09:31:10;;;;;;;4.63;3.10;;;21.70;99.90;;;;;;5076348;28;20232;-65
2023/10/11 09:33:40;;;;;;;4.65;3.03;;;21.90;99.90;;;;;;5075633;28;20225;-67
2023/10/11 09:36:12;;;;;;;4.90;3.38;;;21.80;99.90;;;;;;5077167;28;20206;-66
2023/10/11 09:38:40;;;;;;;3.53;3.00;;;22.10;99.90;;;;;;5077986;28;20233;-65
2023/10/11 09:41:10;;;;;;;6.82;3.42;;;22.40;99.90;;;;;;5076651;28;20833;-65
2023/10/11 09:43:42;;;;;;;3.88;3.00;;;22.40;99.90;;;;;;5076122;28;21035;-66
2023/10/11 09:46:13;;;;;;;3.25;2.90;;;22.50;99.90;;;;;;5077375;28;20207;-66
2023/10/11 09:48:42;;;;;;;4.38;2.90;;;22.60;99.90;;;;;;5075030;28;20294;-65
2023/10/11 09:51:13;;;;;;;4.05;3.22;;;22.90;99.90;;;;;;5076376;28;20773;-66
2023/10/11 09:53:49;;;;;;;5.55;3.92;;;23.10;99.90;;;;;;5076067;28;20622;-65
2023/10/11 09:56:35;;;;;;;4.93;3.60;;;22.70;99.90;;;;;;5077324;28;20295;-65
2023/10/11 09:59:22;;;;;;;5.75;3.45;;;22.60;99.90;;;;;;5076352;28;20206;-65
2023/10/11 10:02:02;;;;;;;5.40;3.22;;;22.50;99.90;;;;;;5075148;28;20211;-65
2023/10/11 10:04:56;;;;;;;3.55;3.25;;;22.50;99.90;;;;;;5076738;28;20210;-65
2023/10/11 10:07:32;;;;;;;4.32;3.28;;;22.30;99.90;;;;;;5077328;28;20686;-66
2023/10/11 10:10:01;;;;;;;3.67;3.10;;;22.40;99.90;;;;;;5077291;28;20863;-66
2023/10/11 10:12:33;;;;;;;4.88;3.15;;;22.70;99.90;;;;;;5076833;28;20229;-68
2023/10/11 10:15:09;;;;;;;4.38;3.08;;;23.10;99.90;;;;;;5077219;28;20214;-65
2023/10/11 10:17:39;;;;;;;4.32;3.38;;;23.50;99.90;;;;;;5077511;28;20214;-66
2023/10/11 10:20:42;;;;;;;3.95;2.55;;;24.00;99.90;;;;;;5075015;28;20217;-66
2023/10/11 10:23:26;;;;;;;2.95;2.17;;;24.00;99.90;;;;;;5076536;28;20253;-65
2023/10/11 10:26:43;;;;;;;12.40;2.88;;;24.20;99.90;;;;;;5075544;28;20231;-66
2023/10/11 10:29:12;;;;;;;3.67;2.72;;;24.20;99.90;;;;;;5076806;28;20229;-66
2023/10/11 10:32:08;;;;;;;4.20;2.75;;;24.20;99.90;;;;;;5074701;28;20601;-65
2023/10/11 10:34:41;;;;;;;3.63;2.80;;;24.50;99.90;;;;;;5076322;28;20746;-64
2023/10/11 10:37:41;;;;;;;8.75;3.53;;;24.60;99.90;;;;;;5076654;28;20218;-65
2023/10/11 10:40:24;;;;;;;4.30;2.85;;;25.00;99.90;;;;;;5076848;28;20210;-65
2023/10/11 10:43:14;;;;;;;2.35;2.15;;;24.90;99.90;;;;;;5076346;28;20230;-66
2023/10/11 10:45:42;;;;;;;2.80;2.05;;;24.90;99.90;;;;;;5075659;28;20239;-67
2023/10/11 10:48:14;;;;;;;8.82;2.40;;;24.90;99.90;;;;;;5079115;28;20700;-67
2023/10/11 10:50:51;;;;;;;4.75;2.53;;;24.80;99.90;;;;;;5078960;28;20274;-65
2023/10/11 10:53:22;;;;;;;7.65;2.70;;;24.90;99.90;;;;;;5075460;28;20242;-66
2023/10/11 10:55:49;;;;;;;5.63;3.38;;;25.20;99.90;;;;;;5076760;28;20202;-65
2023/10/11 10:58:18;;;;;;;9.68;2.58;;;25.30;99.90;;;;;;5076111;28;20214;-65
2023/10/11 11:00:47;;;;;;;4.85;2.72;;;25.70;99.90;;;;;;5074776;28;20854;-67
2023/10/11 11:03:19;;;;;;;7.63;3.65;;;26.10;99.90;;;;;;5074936;28;20355;-66
2023/10/11 11:05:58;;;;;;;3.15;2.17;;;26.30;99.90;;;;;;5076246;28;20289;-66
2023/10/11 11:08:31;;;;;;;2.97;2.15;;;26.60;99.90;;;;;;5074921;28;20202;-65
2023/10/11 11:11:19;;;;;;;4.07;2.58;;;26.50;99.90;;;;;;5075378;28;20211;-66
2023/10/11 11:13:48;;;;;;;3.95;2.67;;;26.70;99.90;;;;;;5076192;28;20327;-65
2023/10/11 11:16:16;;;;;;;3.10;2.47;;;26.70;99.90;;;;;;5076304;28;20268;-67
2023/10/11 11:18:44;;;;;;;2.92;1.92;;;27.00;99.90;;;;;;5075935;28;20212;-67
2023/10/11 11:21:23;;;;;;;5.05;1.80;;;27.40;99.90;;;;;;5077638;28;20252;-65
2023/10/11 11:23:51;;;;;;;2.78;1.88;;;27.60;99.90;;;;;;5075842;28;20241;-66
2023/10/11 11:26:21;;;;;;;3.13;2.78;;;27.60;99.90;;;;;;5077277;28;20203;-67
2023/10/11 11:29:09;;;;;;;3.25;2.38;;;27.60;99.90;;;;;;5080242;28;20203;-65
2023/10/11 11:31:52;;;;;;;2.30;2.10;;;27.50;99.90;;;;;;5077616;28;20583;-68
2023/10/11 11:34:27;;;;;;;5.93;2.28;;;27.50;99.90;;;;;;5078675;28;20600;-66
2023/10/11 11:36:58;;;;;;;2.60;2.40;;;27.70;99.90;;;;;;5079000;28;20230;-67
2023/10/11 11:39:36;;;;;;;3.78;2.20;;;28.00;99.90;;;;;;5079065;28;20214;-66
2023/10/11 11:42:18;;;;;;;3.33;2.20;;;28.30;99.90;;;;;;5082125;28;20226;-65
2023/10/11 11:44:46;;;;;;;4.50;2.08;;;28.50;99.90;;;;;;5082007;28;20232;-67
2023/10/11 11:47:21;;;;;;;3.10;2.22;;;28.50;99.40;;;;;;5082661;28;20271;-66
2023/10/11 11:49:53;;;;;;;3.08;2.25;;;28.60;99.70;;;;;;5079284;28;20293;-67
2023/10/11 11:52:23;;;;;;;4.50;2.35;;;28.70;99.40;;;;;;5080792;28;20685;-67
2023/10/11 11:54:50;;;;;;;4.60;2.08;;;28.80;99.40;;;;;;5077876;28;20211;-67
2023/10/11 11:57:28;;;;;;;2.05;1.65;;;29.10;98.80;;;;;;5078073;28;20225;-65
2023/10/11 11:59:55;;;;;;;2.83;2.22;;;29.20;98.30;;;;;;5079305;28;20202;-65
2023/10/11 12:02:26;;;;;;;4.38;2.90;;;29.60;98.00;;;;;;5078665;28;20735;-66
2023/10/11 12:04:56;;;;;;;2.33;1.80;;;29.60;97.30;;;;;;5078056;28;20745;-66
2023/10/11 12:07:25;;;;;;;4.90;2.30;;;29.90;97.60;;;;;;5079105;28;20211;-65
2023/10/11 12:09:55;;;;;;;2.10;1.85;;;30.20;96.30;;;;;;5077360;28;20211;-67
2023/10/11 12:12:31;;;;;;;2.33;2.13;;;30.30;95.60;;;;;;5077250;28;20226;-70
2023/10/11 12:15:00;;;;;;;2.67;1.70;;;30.30;95.50;;;;;;5080624;28;20213;-66
2023/10/11 12:17:29;;;;;;;3.78;2.33;;;30.20;95.40;;;;;;5081152;28;20304;-66
2023/10/11 12:19:57;;;;;;;4.70;2.35;;;30.20;94.90;;;;;;5082121;28;20293;-66
2023/10/11 12:22:26;;;;;;;5.22;2.60;;;30.20;94.40;;;;;;5075771;28;20198;-66
2023/10/11 12:24:58;;;;;;;4.43;2.10;;;30.10;94.10;;;;;;5092598;28;20225;-66
2023/10/11 12:27:26;;;;;;;3.33;1.75;;;30.30;94.50;;;;;;5081923;28;20219;-66
2023/10/11 12:29:55;;;;;;;2.78;1.73;;;30.30;93.60;;;;;;5087637;28;20206;-66
2023/10/11 12:32:36;;;;;;;2.65;2.00;;;30.20;93.70;;;;;;5082457;28;20238;-66
2023/10/11 12:35:08;;;;;;;2.65;2.00;;;30.50;93.60;;;;;;5085456;28;20207;-65
2023/10/11 12:37:40;;;;;;;2.70;2.33;;;30.40;92.90;;;;;;5088871;28;20290;-66
2023/10/11 12:40:13;;;;;;;1.33;1.20;;;30.50;92.00;;;;;;5092005;28;20534;-65
2023/10/11 12:42:44;;;;;;;3.60;1.67;;;30.50;92.00;;;;;;5094679;28;20241;-66
2023/10/11 12:45:16;;;;;;;4.65;1.98;;;30.50;92.20;;;;;;5090820;28;20214;-66
2023/10/11 12:47:45;;;;;;;3.33;1.75;;;31.00;92.30;;;;;;5087708;28;20285;-66
2023/10/11 12:50:14;;;;;;;2.13;1.42;;;31.40;90.60;;;;;;5092798;28;20698;-66
2023/10/11 12:52:45;;;;;;;6.82;2.10;;;31.30;90.00;;;;;;5093550;28;20232;-67
2023/10/11 12:55:13;;;;;;;2.53;1.75;;;31.20;90.00;;;;;;5091016;28;20214;-65
2023/10/11 12:57:41;;;;;;;2.83;2.10;;;31.00;88.90;;;;;;5089807;28;20218;-66
2023/10/11 13:00:28;;;;;;;2.78;1.83;;;30.90;89.90;;;;;;5090938;28;20289;-66
2023/10/11 13:03:15;;;;;;;1.95;1.75;;;30.90;88.70;;;;;;5089829;28;20312;-65
2023/10/11 13:05:45;;;;;;;2.67;1.70;;;30.90;88.40;;;;;;5090531;28;20214;-66
2023/10/11 13:08:16;;;;;;;3.25;1.95;;;30.70;87.20;;;;;;5091979;28;20202;-66
2023/10/11 13:10:45;;;;;;;2.75;2.00;;;30.60;85.20;;;;;;5094294;28;20691;-66
2023/10/11 13:13:15;;;;;;;3.65;1.70;;;30.90;86.00;;;;;;5091454;28;20234;-66
2023/10/11 13:15:53;;;;;;;3.60;1.55;;;31.20;86.00;;;;;;5091898;28;20898;-66
2023/10/11 13:18:22;;;;;;;2.45;1.25;;;31.10;84.30;;;;;;5079984;28;20213;-66
2023/10/11 13:20:50;;;;;;;1.98;1.55;;;30.80;84.20;;;;;;5091848;28;20224;-66
2023/10/11 13:23:28;;;;;;;2.72;1.67;;;30.70;84.60;;;;;;5087245;28;20230;-66
2023/10/11 13:26:00;;;;;;;8.10;1.75;;;30.80;83.80;;;;;;5088467;28;20230;-66
2023/10/11 13:28:29;;;;;;;2.28;1.75;;;30.90;83.60;;;;;;5093899;28;20213;-66
2023/10/11 13:31:01;;;;;;;1.83;1.73;;;30.70;83.20;;;;;;5092246;28;20642;-66
2023/10/11 13:33:34;;;;;;;2.70;2.50;;;30.90;84.50;;;;;;5091203;28;20238;-66
2023/10/11 13:36:03;;;;;;;2.13;1.40;;;31.00;84.60;;;;;;5091668;28;20225;-66
2023/10/11 13:38:32;;;;;;;3.05;1.58;;;30.90;82.70;;;;;;5094093;28;20731;-66
2023/10/11 13:41:00;;;;;;;1.95;1.75;;;30.60;82.40;;;;;;5088026;28;20230;-65
2023/10/11 13:43:29;;;;;;;2.03;1.65;;;30.30;84.50;;;;;;5092620;28;20719;-65
2023/10/11 13:46:01;;;;;;;3.70;1.55;;;30.40;83.40;;;;;;5091054;28;20223;-67
2023/10/11 13:48:36;;;;;;;1.70;1.60;;;30.30;84.40;;;;;;5094258;28;20206;-66
2023/10/11 13:51:07;;;;;;;2.20;1.40;;;30.00;82.90;;;;;;5089843;28;20209;-66
2023/10/11 13:53:41;;;;;;;2.35;1.30;;;29.90;83.00;;;;;;5087321;28;20223;-67
2023/10/11 13:56:14;;;;;;;1.75;1.55;;;29.90;82.70;;;;;;5092862;28;20615;-66
2023/10/11 13:58:45;;;;;;;2.80;1.65;;;29.80;82.80;;;;;;5094352;28;20194;-66
2023/10/11 14:04:12;;;;;;;2.75;1.75;;;29.60;82.00;;;;;;5085933;28;20271;-66
2023/10/11 14:06:43;;;;;;;1.85;1.35;;;29.70;82.70;;;;;;5094945;28;20209;-67
2023/10/11 14:09:16;;;;;;;2.15;1.65;;;29.70;82.70;;;;;;5071858;28;20670;-65
2023/10/11 14:11:46;;;;;;;2.00;1.25;;;29.70;83.40;;;;;;5071069;28;20210;-66